createdAt,value
2023-04-27T00:00:55.425Z,23.77
2023-04-27T00:01:55.504Z,23.77
2023-04-27T00:02:55.628Z,23.79
2023-04-27T00:03:55.612Z,23.74
2023-04-27T00:04:55.896Z,23.77
2023-04-27T00:05:55.737Z,23.77
2023-04-27T00:06:55.505Z,23.77
2023-04-27T00:07:55.529Z,23.79
2023-04-27T00:08:55.628Z,23.79
2023-04-27T00:09:56.078Z,23.76
2023-04-27T00:10:55.590Z,23.76
2023-04-27T00:11:55.586Z,23.76
2023-04-27T00:12:55.617Z,23.77
2023-04-27T00:13:55.624Z,23.74
2023-04-27T00:14:56.074Z,23.76
2023-04-27T00:15:55.690Z,23.76
2023-04-27T00:16:55.683Z,23.76
2023-04-27T00:17:55.756Z,23.77
2023-04-27T00:18:55.696Z,23.73
2023-04-27T00:19:55.725Z,23.76
2023-04-27T00:20:55.749Z,23.73
2023-04-27T00:21:55.750Z,23.76
2023-04-27T00:22:55.776Z,23.74
2023-04-27T00:23:55.797Z,23.74
2023-04-27T00:24:55.829Z,23.73
2023-04-27T00:25:55.821Z,23.73
2023-04-27T00:26:55.841Z,23.73
2023-04-27T00:27:55.884Z,23.73
2023-04-27T00:28:55.927Z,23.73
2023-04-27T00:29:56.090Z,23.73
2023-04-27T00:30:55.946Z,23.74
2023-04-27T00:31:55.969Z,23.76
2023-04-27T00:32:56.019Z,23.74
2023-04-27T00:33:55.976Z,23.72
2023-04-27T00:34:56.081Z,23.73
2023-04-27T00:35:55.981Z,23.73
2023-04-27T00:36:56.031Z,23.73
2023-04-27T00:37:56.052Z,23.74
2023-04-27T00:38:56.088Z,23.70
2023-04-27T00:39:56.097Z,23.73
2023-04-27T00:40:56.088Z,23.73
2023-04-27T00:41:56.132Z,23.73
2023-04-27T00:42:56.156Z,23.73
2023-04-27T00:43:56.144Z,23.74
2023-04-27T00:44:56.180Z,23.72
2023-04-27T00:45:56.273Z,23.72
2023-04-27T00:46:56.223Z,23.73
2023-04-27T00:47:56.304Z,23.73
2023-04-27T00:48:56.248Z,23.73
2023-04-27T00:49:56.279Z,23.72
2023-04-27T00:50:56.256Z,23.72
2023-04-27T00:51:56.271Z,23.73
2023-04-27T00:52:56.282Z,23.73
2023-04-27T00:53:56.330Z,23.72
2023-04-27T00:54:56.314Z,23.72
2023-04-27T00:55:56.326Z,23.72
2023-04-27T00:56:56.360Z,23.73
2023-04-27T00:57:56.427Z,23.72
2023-04-27T00:58:56.374Z,23.70
2023-04-27T00:59:56.414Z,23.73
2023-04-27T01:00:56.442Z,23.72
2023-04-27T01:01:56.447Z,23.72
2023-04-27T01:02:56.681Z,23.70
2023-04-27T01:03:56.618Z,23.72
2023-04-27T01:04:56.513Z,23.72
2023-04-27T01:05:56.471Z,23.69
2023-04-27T01:06:56.509Z,23.72
2023-04-27T01:07:56.519Z,23.70
2023-04-27T01:08:56.564Z,23.70
2023-04-27T01:09:56.590Z,23.70
2023-04-27T01:10:56.604Z,23.69
2023-04-27T01:11:56.620Z,23.69
2023-04-27T01:12:56.659Z,23.72
2023-04-27T01:13:56.680Z,23.67
2023-04-27T01:14:56.678Z,23.69
2023-04-27T01:15:56.679Z,23.69
2023-04-27T01:16:56.848Z,23.70
2023-04-27T01:17:56.792Z,23.70
2023-04-27T01:18:56.749Z,23.70
2023-04-27T01:19:56.805Z,23.70
2023-04-27T01:20:56.754Z,23.67
2023-04-27T01:21:56.796Z,23.69
2023-04-27T01:22:56.808Z,23.70
2023-04-27T01:23:56.851Z,23.69
2023-04-27T01:24:56.837Z,23.69
2023-04-27T01:25:56.852Z,23.67
2023-04-27T01:26:56.896Z,23.69
2023-04-27T01:27:56.895Z,23.67
2023-04-27T01:28:56.925Z,23.67
2023-04-27T01:29:56.960Z,23.67
2023-04-27T01:30:56.984Z,23.70
2023-04-27T01:31:56.976Z,23.67
2023-04-27T01:32:57.045Z,23.67
2023-04-27T01:33:57.010Z,23.67
2023-04-27T01:34:57.045Z,23.63
2023-04-27T01:35:57.069Z,23.67
2023-04-27T01:36:57.099Z,23.66
2023-04-27T01:37:57.116Z,23.67
2023-04-27T01:38:57.108Z,23.67
2023-04-27T01:39:57.158Z,23.66
2023-04-27T01:40:57.201Z,23.66
2023-04-27T01:41:58.534Z,23.66
2023-04-27T01:42:57.213Z,23.67
2023-04-27T01:43:57.239Z,23.67
2023-04-27T01:44:57.256Z,23.66
2023-04-27T01:45:57.316Z,23.66
2023-04-27T01:46:57.291Z,23.66
2023-04-27T01:47:57.381Z,23.66
2023-04-27T01:48:57.369Z,23.69
2023-04-27T01:49:57.381Z,23.66
2023-04-27T01:50:58.104Z,23.66
2023-04-27T01:51:57.367Z,23.65
2023-04-27T01:52:57.394Z,23.65
2023-04-27T01:53:57.431Z,23.66
2023-04-27T01:54:57.476Z,23.67
2023-04-27T01:55:57.467Z,23.66
2023-04-27T01:56:57.491Z,23.67
2023-04-27T01:57:57.516Z,23.65
2023-04-27T01:58:57.543Z,23.65
2023-04-27T01:59:57.596Z,23.65
2023-04-27T02:00:57.576Z,23.66
2023-04-27T02:01:57.713Z,23.66
2023-04-27T02:02:57.850Z,23.66
2023-04-27T02:03:57.885Z,23.65
2023-04-27T02:04:57.706Z,23.63
2023-04-27T02:05:57.724Z,23.65
2023-04-27T02:06:57.742Z,23.65
2023-04-27T02:07:57.758Z,23.62
2023-04-27T02:08:57.773Z,23.65
2023-04-27T02:09:57.786Z,23.66
2023-04-27T02:10:57.835Z,23.66
2023-04-27T02:11:57.841Z,23.63
2023-04-27T02:12:57.875Z,23.62
2023-04-27T02:13:57.897Z,23.63
2023-04-27T02:14:57.893Z,23.63
2023-04-27T02:15:57.962Z,23.65
2023-04-27T02:16:57.957Z,23.63
2023-04-27T02:17:58.011Z,23.62
2023-04-27T02:18:58.018Z,23.62
2023-04-27T02:19:58.012Z,23.62
2023-04-27T02:20:58.065Z,23.62
2023-04-27T02:21:58.089Z,23.60
2023-04-27T02:22:58.075Z,23.60
2023-04-27T02:23:58.131Z,23.62
2023-04-27T02:24:58.125Z,23.62
2023-04-27T02:25:58.173Z,23.62
2023-04-27T02:26:58.217Z,23.62
2023-04-27T02:27:58.211Z,23.60
2023-04-27T02:28:58.242Z,23.62
2023-04-27T02:29:58.280Z,23.60
2023-04-27T02:30:58.277Z,23.62
2023-04-27T02:31:58.366Z,23.59
2023-04-27T02:32:58.355Z,23.60
2023-04-27T02:33:58.323Z,23.59
2023-04-27T02:34:58.380Z,23.60
2023-04-27T02:35:58.402Z,23.60
2023-04-27T02:36:58.425Z,23.59
2023-04-27T02:37:58.410Z,23.60
2023-04-27T02:38:58.445Z,23.62
2023-04-27T02:39:58.473Z,23.62
2023-04-27T02:40:58.534Z,23.60
2023-04-27T02:41:58.531Z,23.59
2023-04-27T02:42:58.524Z,23.59
2023-04-27T02:43:58.571Z,23.59
2023-04-27T02:44:58.618Z,23.60
2023-04-27T02:45:58.614Z,23.59
2023-04-27T02:46:58.675Z,23.59
2023-04-27T02:47:58.698Z,23.57
2023-04-27T02:48:58.701Z,23.59
2023-04-27T02:49:58.702Z,23.59
2023-04-27T02:50:58.754Z,23.60
2023-04-27T02:51:58.759Z,23.59
2023-04-27T02:52:58.769Z,23.56
2023-04-27T02:53:58.802Z,23.57
2023-04-27T02:54:58.831Z,23.60
2023-04-27T02:55:58.871Z,23.57
2023-04-27T02:56:58.901Z,23.57
2023-04-27T02:57:58.901Z,23.59
2023-04-27T02:58:58.959Z,23.60
2023-04-27T02:59:58.980Z,23.56
2023-04-27T03:00:59.024Z,23.56
2023-04-27T03:01:59.031Z,23.56
2023-04-27T03:02:59.196Z,23.57
2023-04-27T03:03:59.209Z,23.57
2023-04-27T03:04:59.139Z,23.57
2023-04-27T03:05:59.175Z,23.57
2023-04-27T03:06:59.173Z,23.56
2023-04-27T03:07:59.221Z,23.57
2023-04-27T03:08:59.244Z,23.56
2023-04-27T03:09:59.278Z,23.55
2023-04-27T03:10:59.341Z,23.56
2023-04-27T03:11:59.362Z,23.57
2023-04-27T03:12:59.355Z,23.55
2023-04-27T03:13:59.432Z,23.56
2023-04-27T03:14:59.458Z,23.56
2023-04-27T03:15:59.506Z,23.56
2023-04-27T03:16:59.509Z,23.56
2023-04-27T03:17:59.548Z,23.56
2023-04-27T03:18:59.558Z,23.55
2023-04-27T03:19:59.614Z,23.55
2023-04-27T03:20:59.636Z,23.55
2023-04-27T03:21:59.664Z,23.56
2023-04-27T03:22:59.696Z,23.55
2023-04-27T03:23:59.736Z,23.55
2023-04-27T03:24:59.789Z,23.55
2023-04-27T03:25:59.788Z,23.53
2023-04-27T03:26:59.818Z,23.53
2023-04-27T03:27:59.946Z,23.53
2023-04-27T03:28:59.923Z,23.56
2023-04-27T03:30:00.169Z,23.53
2023-04-27T03:30:59.954Z,23.53
2023-04-27T03:32:00.049Z,23.53
2023-04-27T03:33:00.061Z,23.55
2023-04-27T03:34:00.064Z,23.56
2023-04-27T03:35:00.156Z,23.53
2023-04-27T03:36:00.157Z,23.52
2023-04-27T03:37:00.176Z,23.56
2023-04-27T03:38:00.203Z,23.53
2023-04-27T03:39:00.254Z,23.53
2023-04-27T03:40:00.285Z,23.52
2023-04-27T03:41:00.339Z,23.55
2023-04-27T03:42:00.339Z,23.55
2023-04-27T03:43:00.408Z,23.53
2023-04-27T03:44:00.432Z,23.53
2023-04-27T03:45:00.468Z,23.53
2023-04-27T03:46:00.479Z,23.53
2023-04-27T03:47:00.532Z,23.53
2023-04-27T03:48:00.736Z,23.53
2023-04-27T03:49:00.608Z,23.50
2023-04-27T03:50:00.638Z,23.50
2023-04-27T03:51:00.668Z,23.53
2023-04-27T03:52:00.715Z,23.52
2023-04-27T03:53:00.725Z,23.53
2023-04-27T03:54:00.757Z,23.52
2023-04-27T03:55:00.805Z,23.50
2023-04-27T03:56:00.856Z,23.50
2023-04-27T03:57:00.884Z,23.50
2023-04-27T03:58:00.931Z,23.49
2023-04-27T03:59:00.974Z,23.52
2023-04-27T04:00:01.128Z,23.53
2023-04-27T04:01:01.049Z,23.53
2023-04-27T04:02:01.497Z,23.49
2023-04-27T04:03:01.291Z,23.52
2023-04-27T04:04:01.291Z,23.52
2023-04-27T04:05:01.267Z,23.50
2023-04-27T04:06:01.226Z,23.52
2023-04-27T04:07:01.249Z,23.50
2023-04-27T04:08:01.318Z,23.49
2023-04-27T04:09:01.396Z,23.50
2023-04-27T04:10:01.350Z,23.50
2023-04-27T04:11:01.407Z,23.49
2023-04-27T04:12:01.439Z,23.49
2023-04-27T04:13:01.449Z,23.50
2023-04-27T04:14:01.526Z,23.50
2023-04-27T04:15:01.600Z,23.52
2023-04-27T04:16:01.694Z,23.50
2023-04-27T04:17:01.666Z,23.52
2023-04-27T04:18:01.675Z,23.53
2023-04-27T04:19:01.731Z,23.50
2023-04-27T04:20:01.753Z,23.49
2023-04-27T04:21:01.813Z,23.49
2023-04-27T04:22:01.819Z,23.49
2023-04-27T04:23:01.852Z,23.52
2023-04-27T04:24:01.905Z,23.50
2023-04-27T04:25:01.952Z,23.50
2023-04-27T04:26:02.009Z,23.50
2023-04-27T04:27:02.019Z,23.50
2023-04-27T04:28:02.079Z,23.52
2023-04-27T04:29:02.102Z,23.52
2023-04-27T04:30:02.157Z,23.49
2023-04-27T04:31:02.291Z,23.52
2023-04-27T04:32:02.233Z,23.50
2023-04-27T04:33:02.311Z,23.50
2023-04-27T04:34:02.314Z,23.50
2023-04-27T04:35:02.307Z,23.49
2023-04-27T04:36:02.371Z,23.50
2023-04-27T04:37:02.427Z,23.50
2023-04-27T04:38:02.431Z,23.52
2023-04-27T04:39:02.470Z,23.50
2023-04-27T04:40:02.510Z,23.48
2023-04-27T04:41:02.582Z,23.50
2023-04-27T04:42:02.614Z,23.48
2023-04-27T04:43:02.620Z,23.50
2023-04-27T04:44:02.659Z,23.50
2023-04-27T04:45:02.714Z,23.48
2023-04-27T04:46:02.755Z,23.50
2023-04-27T04:47:02.915Z,23.48
2023-04-27T04:48:02.889Z,23.50
2023-04-27T04:49:02.871Z,23.49
2023-04-27T04:50:02.896Z,23.48
2023-04-27T04:51:02.908Z,23.49
2023-04-27T04:52:02.960Z,23.48
2023-04-27T04:53:02.988Z,23.48
2023-04-27T04:54:03.040Z,23.48
2023-04-27T04:55:03.067Z,23.48
2023-04-27T04:56:03.105Z,23.49
2023-04-27T04:57:03.126Z,23.49
2023-04-27T04:58:03.193Z,23.49
2023-04-27T04:59:03.246Z,23.48
2023-04-27T05:00:03.286Z,23.48
2023-04-27T05:01:03.338Z,23.49
2023-04-27T05:02:03.375Z,23.50
2023-04-27T05:03:03.440Z,23.45
2023-04-27T05:04:03.562Z,23.50
2023-04-27T05:05:03.504Z,23.46
2023-04-27T05:06:03.511Z,23.48
2023-04-27T05:07:03.539Z,23.48
2023-04-27T05:08:03.598Z,23.48
2023-04-27T05:09:03.608Z,23.48
2023-04-27T05:10:04.168Z,23.46
2023-04-27T05:11:03.742Z,23.49
2023-04-27T05:12:03.735Z,23.46
2023-04-27T05:14:03.860Z,23.48
2023-04-27T05:15:03.842Z,23.48
2023-04-27T05:16:03.927Z,23.48
2023-04-27T05:17:03.920Z,23.48
2023-04-27T05:18:04.032Z,23.46
2023-04-27T05:19:03.996Z,23.46
2023-04-27T05:20:04.064Z,23.46
2023-04-27T05:21:04.129Z,23.48
2023-04-27T05:22:04.137Z,23.46
2023-04-27T05:23:04.173Z,23.48
2023-04-27T05:24:04.190Z,23.46
2023-04-27T05:25:04.242Z,23.45
2023-04-27T05:26:04.286Z,23.45
2023-04-27T05:27:04.303Z,23.46
2023-04-27T05:28:04.360Z,23.45
2023-04-27T05:29:04.404Z,23.46
2023-04-27T05:30:04.452Z,23.45
2023-04-27T05:31:04.457Z,23.48
2023-04-27T05:32:04.505Z,23.45
2023-04-27T05:33:04.560Z,23.44
2023-04-27T05:34:04.614Z,23.46
2023-04-27T05:35:04.627Z,23.46
2023-04-27T05:36:05.176Z,23.46
2023-04-27T05:37:04.694Z,23.46
2023-04-27T05:38:04.742Z,23.46
2023-04-27T05:39:04.789Z,23.48
2023-04-27T05:40:04.835Z,23.48
2023-04-27T05:41:04.876Z,23.44
2023-04-27T05:42:04.914Z,23.45
2023-04-27T05:43:04.958Z,23.45
2023-04-27T05:44:05.043Z,23.44
2023-04-27T05:45:05.080Z,23.44
2023-04-27T05:46:05.146Z,23.44
2023-04-27T05:47:05.125Z,23.46
2023-04-27T05:48:05.239Z,23.44
2023-04-27T05:49:05.246Z,23.44
2023-04-27T05:50:05.285Z,23.44
2023-04-27T05:51:05.704Z,23.45
2023-04-27T05:52:05.327Z,23.48
2023-04-27T05:53:05.365Z,23.49
2023-04-27T05:54:05.424Z,23.46
2023-04-27T05:55:05.458Z,23.48
2023-04-27T05:56:05.489Z,23.49
2023-04-27T05:57:05.525Z,23.49
2023-04-27T05:58:08.946Z,23.50
2023-04-27T05:59:05.595Z,23.48
2023-04-27T06:00:05.533Z,23.48
2023-04-27T06:01:05.679Z,23.46
2023-04-27T06:02:05.632Z,23.50
2023-04-27T06:03:05.662Z,23.50
2023-04-27T06:04:05.667Z,23.53
2023-04-27T06:05:05.522Z,23.56
2023-04-27T06:06:05.526Z,23.60
2023-04-27T06:07:05.489Z,23.62
2023-04-27T06:08:05.523Z,23.63
2023-04-27T06:09:05.472Z,23.67
2023-04-27T06:10:05.507Z,23.70
2023-04-27T06:11:05.501Z,23.73
2023-04-27T06:12:05.495Z,23.76
2023-04-27T06:13:05.476Z,23.77
2023-04-27T06:14:05.461Z,23.80
2023-04-27T06:15:05.452Z,23.83
2023-04-27T06:16:05.500Z,23.84
2023-04-27T06:17:05.463Z,23.87
2023-04-27T06:18:05.501Z,23.91
2023-04-27T06:19:05.443Z,23.90
2023-04-27T06:20:05.426Z,23.96
2023-04-27T06:21:05.697Z,23.96
2023-04-27T06:22:05.401Z,23.99
2023-04-27T06:23:05.399Z,24.00
2023-04-27T06:24:05.370Z,24.00
2023-04-27T06:25:05.396Z,24.03
2023-04-27T06:26:05.359Z,24.04
2023-04-27T06:27:05.407Z,24.08
2023-04-27T06:28:05.380Z,24.08
2023-04-27T06:29:05.371Z,24.10
2023-04-27T06:30:05.363Z,24.11
2023-04-27T06:31:05.408Z,24.12
2023-04-27T06:32:05.340Z,24.15
2023-04-27T06:33:05.434Z,24.15
2023-04-27T06:34:05.319Z,24.17
2023-04-27T06:35:05.326Z,24.19
2023-04-27T06:36:05.714Z,24.21
2023-04-27T06:37:05.296Z,24.22
2023-04-27T06:38:07.578Z,24.24
2023-04-27T06:39:05.272Z,24.27
2023-04-27T06:40:05.291Z,24.27
2023-04-27T06:41:05.250Z,24.28
2023-04-27T06:42:05.264Z,24.31
2023-04-27T06:43:05.256Z,24.34
2023-04-27T06:44:05.251Z,24.34
2023-04-27T06:45:05.244Z,24.36
2023-04-27T06:46:05.369Z,24.36
2023-04-27T06:47:05.260Z,24.36
2023-04-27T06:48:05.254Z,24.38
2023-04-27T06:49:05.244Z,24.38
2023-04-27T06:50:05.211Z,24.42
2023-04-27T06:51:05.731Z,24.42
2023-04-27T06:52:05.194Z,24.42
2023-04-27T06:53:05.217Z,24.42
2023-04-27T06:54:05.181Z,24.42
2023-04-27T06:55:05.180Z,24.40
2023-04-27T06:56:05.199Z,24.39
2023-04-27T06:57:05.153Z,24.32
2023-04-27T06:58:05.217Z,24.36
2023-04-27T06:59:05.177Z,24.38
2023-04-27T07:00:05.139Z,24.34
2023-04-27T07:01:05.245Z,24.35
2023-04-27T07:02:05.136Z,24.36
2023-04-27T07:03:05.201Z,24.38
2023-04-27T07:04:05.202Z,24.38
2023-04-27T07:05:05.157Z,24.36
2023-04-27T07:06:05.099Z,24.39
2023-04-27T07:07:05.129Z,24.39
2023-04-27T07:08:07.783Z,24.39
2023-04-27T07:09:13.190Z,24.39
2023-04-27T07:10:06.098Z,24.38
2023-04-27T07:11:05.099Z,24.42
2023-04-27T07:12:05.050Z,24.40
2023-04-27T07:13:07.320Z,24.39
2023-04-27T07:14:05.059Z,24.40
2023-04-27T07:15:05.033Z,24.35
2023-04-27T07:16:05.087Z,24.25
2023-04-27T07:17:05.022Z,24.17
2023-04-27T07:18:05.071Z,24.05
2023-04-27T07:19:05.024Z,23.91
2023-04-27T07:20:04.975Z,23.83
2023-04-27T07:21:04.995Z,23.76
2023-04-27T07:22:04.992Z,23.67
2023-04-27T07:23:04.982Z,23.59
2023-04-27T07:24:04.974Z,23.52
2023-04-27T07:25:04.954Z,23.45
2023-04-27T07:26:05.200Z,23.37
2023-04-27T07:27:04.966Z,23.29
2023-04-27T07:28:04.941Z,23.28
2023-04-27T07:29:14.518Z,23.22
2023-04-27T07:30:05.907Z,23.21
2023-04-27T07:31:04.926Z,23.17
2023-04-27T07:32:04.940Z,23.17
2023-04-27T07:33:04.965Z,23.12
2023-04-27T07:34:04.894Z,23.11
2023-04-27T07:35:04.884Z,23.10
2023-04-27T07:36:05.226Z,23.05
2023-04-27T07:37:04.895Z,23.03
2023-04-27T07:38:04.848Z,23.03
2023-04-27T07:39:04.852Z,22.97
2023-04-27T07:40:04.901Z,22.93
2023-04-27T07:41:04.984Z,22.89
2023-04-27T07:42:05.038Z,22.86
2023-04-27T07:43:05.094Z,22.84
2023-04-27T07:44:05.134Z,22.82
2023-04-27T07:45:05.201Z,22.82
2023-04-27T07:46:05.833Z,22.87
2023-04-27T07:47:05.350Z,22.90
2023-04-27T07:48:05.409Z,22.89
2023-04-27T07:49:05.472Z,22.86
2023-04-27T07:50:05.506Z,22.86
2023-04-27T07:51:05.598Z,22.90
2023-04-27T07:52:05.624Z,22.98
2023-04-27T07:53:05.671Z,23.03
2023-04-27T07:54:05.733Z,23.05
2023-04-27T07:55:05.782Z,23.10
2023-04-27T07:56:05.862Z,23.10
2023-04-27T07:57:05.886Z,23.15
2023-04-27T07:58:05.951Z,23.19
2023-04-27T07:59:05.991Z,23.21
2023-04-27T08:00:06.024Z,23.25
2023-04-27T08:01:06.074Z,23.26
2023-04-27T08:02:18.378Z,23.31
2023-04-27T08:03:07.263Z,23.33
2023-04-27T08:04:06.482Z,23.35
2023-04-27T08:05:06.239Z,23.37
2023-04-27T08:06:06.270Z,23.42
2023-04-27T08:07:06.853Z,23.45
2023-04-27T08:08:06.281Z,23.46
2023-04-27T08:09:06.268Z,23.48
2023-04-27T08:10:06.049Z,23.53
2023-04-27T08:11:06.044Z,23.52
2023-04-27T08:12:06.054Z,23.53
2023-04-27T08:13:06.035Z,23.57
2023-04-27T08:14:06.052Z,23.59
2023-04-27T08:15:06.017Z,23.60
2023-04-27T08:16:06.129Z,23.63
2023-04-27T08:17:06.168Z,23.65
2023-04-27T08:18:06.147Z,23.67
2023-04-27T08:19:06.128Z,23.69
2023-04-27T08:20:06.162Z,23.70
2023-04-27T08:21:06.161Z,23.73
2023-04-27T08:22:06.179Z,23.74
2023-04-27T08:23:06.198Z,23.76
2023-04-27T08:24:06.189Z,23.77
2023-04-27T08:25:06.200Z,23.80
2023-04-27T08:26:06.705Z,23.83
2023-04-27T08:27:06.246Z,23.83
2023-04-27T08:28:06.256Z,23.83
2023-04-27T08:29:15.246Z,23.87
2023-04-27T08:30:07.285Z,23.84
2023-04-27T08:31:06.300Z,23.88
2023-04-27T08:32:06.224Z,23.88
2023-04-27T08:33:06.380Z,23.90
2023-04-27T08:34:06.229Z,23.90
2023-04-27T08:35:06.212Z,23.91
2023-04-27T08:36:06.219Z,23.94
2023-04-27T08:37:06.185Z,23.91
2023-04-27T08:38:06.184Z,23.93
2023-04-27T08:39:06.186Z,23.94
2023-04-27T08:40:06.179Z,24.00
2023-04-27T08:41:18.359Z,23.97
2023-04-27T08:42:07.172Z,24.00
2023-04-27T08:43:06.155Z,24.03
2023-04-27T08:44:06.168Z,24.03
2023-04-27T08:45:06.126Z,24.04
2023-04-27T08:46:06.161Z,24.07
2023-04-27T08:47:06.121Z,24.12
2023-04-27T08:48:06.158Z,24.08
2023-04-27T08:49:06.118Z,24.08
2023-04-27T08:50:06.138Z,24.08
2023-04-27T08:51:06.111Z,24.10
2023-04-27T08:52:06.068Z,24.11
2023-04-27T08:53:06.089Z,24.12
2023-04-27T08:54:06.092Z,24.10
2023-04-27T08:55:06.069Z,24.11
2023-04-27T08:56:06.062Z,24.08
2023-04-27T08:57:06.021Z,24.07
2023-04-27T08:58:06.056Z,24.05
2023-04-27T08:59:06.037Z,24.03
2023-04-27T09:00:06.020Z,24.00
2023-04-27T09:01:06.007Z,23.97
2023-04-27T09:02:06.109Z,23.94
2023-04-27T09:03:06.131Z,23.90
2023-04-27T09:04:06.350Z,23.88
2023-04-27T09:05:06.145Z,23.87
2023-04-27T09:06:06.378Z,23.83
2023-04-27T09:07:06.131Z,23.81
2023-04-27T09:08:06.133Z,23.80
2023-04-27T09:09:06.164Z,23.80
2023-04-27T09:10:06.195Z,23.77
2023-04-27T09:11:06.225Z,23.74
2023-04-27T09:12:06.267Z,23.74
2023-04-27T09:13:06.306Z,23.69
2023-04-27T09:14:06.322Z,23.67
2023-04-27T09:15:06.507Z,23.66
2023-04-27T09:16:06.467Z,23.65
2023-04-27T09:17:06.467Z,23.63
2023-04-27T09:18:06.548Z,23.62
2023-04-27T09:19:06.533Z,23.59
2023-04-27T09:20:06.559Z,23.57
2023-04-27T09:21:06.635Z,23.57
2023-04-27T09:22:06.666Z,23.55
2023-04-27T09:23:06.712Z,23.56
2023-04-27T09:24:06.741Z,23.53
2023-04-27T09:25:06.795Z,23.52
2023-04-27T09:26:06.826Z,23.55
2023-04-27T09:27:06.915Z,23.53
2023-04-27T09:28:06.948Z,23.52
2023-04-27T09:29:07.102Z,23.52
2023-04-27T09:30:07.042Z,23.52
2023-04-27T09:31:07.131Z,23.52
2023-04-27T09:32:07.139Z,23.50
2023-04-27T09:33:07.268Z,23.52
2023-04-27T09:34:07.238Z,23.50
2023-04-27T09:35:07.258Z,23.49
2023-04-27T09:36:07.321Z,23.53
2023-04-27T09:37:07.354Z,23.49
2023-04-27T09:38:07.410Z,23.49
2023-04-27T09:39:07.413Z,23.48
2023-04-27T09:40:07.451Z,23.50
2023-04-27T09:41:07.544Z,23.49
2023-04-27T09:42:07.582Z,23.48
2023-04-27T09:43:07.632Z,23.50
2023-04-27T09:44:07.749Z,23.48
2023-04-27T09:45:07.760Z,23.48
2023-04-27T09:46:08.310Z,23.48
2023-04-27T09:47:07.837Z,23.49
2023-04-27T09:48:07.911Z,23.49
2023-04-27T09:49:07.906Z,23.48
2023-04-27T09:50:07.928Z,23.50
2023-04-27T09:51:08.232Z,23.52
2023-04-27T09:52:08.035Z,23.52
2023-04-27T09:53:08.059Z,23.55
2023-04-27T09:54:08.092Z,23.56
2023-04-27T09:55:08.151Z,23.57
2023-04-27T09:56:08.228Z,23.57
2023-04-27T09:57:08.226Z,23.59
2023-04-27T09:58:08.283Z,23.62
2023-04-27T09:59:08.295Z,23.63
2023-04-27T10:00:08.368Z,23.60
2023-04-27T10:01:08.395Z,23.62
2023-04-27T10:02:23.560Z,23.63
2023-04-27T10:03:09.491Z,23.63
2023-04-27T10:04:08.524Z,23.65
2023-04-27T10:05:08.417Z,23.63
2023-04-27T10:06:08.427Z,23.65
2023-04-27T10:07:08.394Z,23.65
2023-04-27T10:08:08.406Z,23.65
2023-04-27T10:09:08.371Z,23.66
2023-04-27T10:10:08.331Z,23.66
2023-04-27T10:11:08.338Z,23.66
2023-04-27T10:12:08.354Z,23.65
2023-04-27T10:13:08.348Z,23.66
2023-04-27T10:14:08.339Z,23.65
2023-04-27T10:15:08.313Z,23.67
2023-04-27T10:16:08.336Z,23.69
2023-04-27T10:17:08.331Z,23.67
2023-04-27T10:18:08.406Z,23.67
2023-04-27T10:19:08.385Z,23.72
2023-04-27T10:20:08.415Z,23.69
2023-04-27T10:21:08.437Z,23.72
2023-04-27T10:22:08.495Z,23.67
2023-04-27T10:23:08.479Z,23.70
2023-04-27T10:24:08.521Z,23.70
2023-04-27T10:25:08.545Z,23.73
2023-04-27T10:26:08.744Z,23.73
2023-04-27T10:27:08.563Z,23.73
2023-04-27T10:28:08.641Z,23.76
2023-04-27T10:29:08.626Z,23.74
2023-04-27T10:30:08.671Z,23.74
2023-04-27T10:31:08.779Z,23.73
2023-04-27T10:32:08.707Z,23.77
2023-04-27T10:33:08.994Z,23.76
2023-04-27T10:34:08.743Z,23.76
2023-04-27T10:35:08.801Z,23.79
2023-04-27T10:36:08.775Z,23.77
2023-04-27T10:37:08.813Z,23.79
2023-04-27T10:38:08.811Z,23.79
2023-04-27T10:39:08.847Z,23.77
2023-04-27T10:40:08.833Z,23.66
2023-04-27T10:41:08.871Z,23.79
2023-04-27T10:42:08.841Z,23.83
2023-04-27T10:43:08.877Z,23.80
2023-04-27T10:44:08.863Z,23.87
2023-04-27T10:45:08.871Z,23.88
2023-04-27T10:46:08.905Z,23.90
2023-04-27T10:47:08.870Z,23.91
2023-04-27T10:48:08.923Z,23.94
2023-04-27T10:49:08.889Z,23.96
2023-04-27T10:50:08.913Z,23.97
2023-04-27T10:51:08.888Z,24.00
2023-04-27T10:52:08.874Z,24.04
2023-04-27T10:53:08.916Z,24.05
2023-04-27T10:54:08.894Z,24.07
2023-04-27T10:55:08.904Z,24.11
2023-04-27T10:56:08.900Z,24.12
2023-04-27T10:57:08.947Z,24.14
2023-04-27T10:58:08.988Z,24.15
2023-04-27T10:59:09.011Z,24.17
2023-04-27T11:00:09.061Z,24.19
2023-04-27T11:01:09.238Z,24.22
2023-04-27T11:02:09.270Z,24.22
2023-04-27T11:03:09.390Z,24.27
2023-04-27T11:04:09.404Z,24.28
2023-04-27T11:05:09.493Z,24.32
2023-04-27T11:06:09.461Z,24.34
2023-04-27T11:07:09.780Z,24.36
2023-04-27T11:08:09.561Z,24.36
2023-04-27T11:09:09.614Z,24.39
2023-04-27T11:10:09.688Z,24.39
2023-04-27T11:11:09.726Z,24.43
2023-04-27T11:12:09.813Z,24.45
2023-04-27T11:13:09.824Z,24.48
2023-04-27T11:14:09.842Z,24.46
2023-04-27T11:15:09.873Z,24.51
2023-04-27T11:16:09.942Z,24.52
2023-04-27T11:17:10.269Z,24.53
2023-04-27T11:18:09.961Z,24.53
2023-04-27T11:19:10.000Z,24.56
2023-04-27T11:20:10.054Z,24.58
2023-04-27T11:21:10.111Z,24.59
2023-04-27T11:22:10.102Z,24.63
2023-04-27T11:23:10.106Z,24.62
2023-04-27T11:24:10.535Z,24.66
2023-04-27T11:25:10.196Z,24.66
2023-04-27T11:26:10.214Z,24.67
2023-04-27T11:27:10.210Z,24.70
2023-04-27T11:28:10.221Z,24.71
2023-04-27T11:29:10.273Z,24.73
2023-04-27T11:30:10.289Z,24.71
2023-04-27T11:31:10.291Z,24.76
2023-04-27T11:32:10.329Z,24.74
2023-04-27T11:33:10.371Z,24.76
2023-04-27T11:34:10.335Z,24.79
2023-04-27T11:35:10.347Z,24.80
2023-04-27T11:36:10.346Z,24.77
2023-04-27T11:37:18.399Z,24.80
2023-04-27T11:38:11.354Z,24.79
2023-04-27T11:39:10.474Z,24.79
2023-04-27T11:40:10.353Z,24.79
2023-04-27T11:41:10.311Z,24.77
2023-04-27T11:42:10.334Z,24.79
2023-04-27T11:43:10.358Z,24.76
2023-04-27T11:44:10.325Z,24.73
2023-04-27T11:45:10.312Z,24.71
2023-04-27T11:46:10.315Z,24.71
2023-04-27T11:47:10.334Z,24.67
2023-04-27T11:48:10.322Z,24.66
2023-04-27T11:49:10.306Z,24.64
2023-04-27T11:50:10.296Z,24.63
2023-04-27T11:51:10.312Z,24.62
2023-04-27T11:52:10.300Z,24.60
2023-04-27T11:53:10.259Z,24.58
2023-04-27T11:54:10.258Z,24.56
2023-04-27T11:55:10.263Z,24.53
2023-04-27T11:56:10.257Z,24.52
2023-04-27T11:57:10.310Z,24.52
2023-04-27T11:58:10.332Z,24.51
2023-04-27T11:59:10.389Z,24.48
2023-04-27T12:00:10.423Z,24.46
2023-04-27T12:01:10.520Z,24.46
2023-04-27T12:02:10.583Z,24.45
2023-04-27T12:03:10.801Z,24.45
2023-04-27T12:04:10.863Z,24.43
2023-04-27T12:05:10.982Z,24.40
2023-04-27T12:06:31.505Z,24.42
2023-04-27T12:07:11.716Z,24.40
2023-04-27T12:08:10.711Z,24.40
2023-04-27T12:09:10.798Z,24.38
2023-04-27T12:10:10.702Z,24.40
2023-04-27T12:11:10.705Z,24.39
2023-04-27T12:12:10.685Z,24.42
2023-04-27T12:13:10.661Z,24.39
2023-04-27T12:14:10.653Z,24.39
2023-04-27T12:15:10.701Z,24.39
2023-04-27T12:16:10.713Z,24.39
2023-04-27T12:17:10.841Z,24.35
2023-04-27T12:18:10.844Z,24.38
2023-04-27T12:19:10.905Z,24.36
2023-04-27T12:20:10.923Z,24.38
2023-04-27T12:21:11.028Z,24.38
2023-04-27T12:22:11.051Z,24.35
2023-04-27T12:23:11.099Z,24.38
2023-04-27T12:24:11.287Z,24.36
2023-04-27T12:25:11.264Z,24.34
2023-04-27T12:26:12.348Z,24.36
2023-04-27T12:27:11.360Z,24.34
2023-04-27T12:28:11.386Z,24.32
2023-04-27T12:29:12.230Z,24.32
2023-04-27T12:30:11.566Z,24.32
2023-04-27T12:31:11.655Z,24.32
2023-04-27T12:32:11.662Z,24.32
2023-04-27T12:33:11.808Z,24.32
2023-04-27T12:34:12.006Z,24.31
2023-04-27T12:35:11.839Z,24.31
2023-04-27T12:36:11.923Z,24.31
2023-04-27T12:37:11.982Z,24.34
2023-04-27T12:38:12.025Z,24.35
2023-04-27T12:39:12.102Z,24.36
2023-04-27T12:40:12.163Z,24.39
2023-04-27T12:41:12.224Z,24.40
2023-04-27T12:42:12.255Z,24.42
2023-04-27T12:43:12.309Z,24.43
2023-04-27T12:44:12.441Z,24.45
2023-04-27T12:45:12.413Z,24.46
2023-04-27T12:46:12.506Z,24.51
2023-04-27T12:47:20.095Z,24.52
2023-04-27T12:48:15.124Z,24.51
2023-04-27T12:49:12.513Z,24.55
2023-04-27T12:50:12.543Z,24.56
2023-04-27T12:51:12.481Z,24.59
2023-04-27T12:52:12.462Z,24.59
2023-04-27T12:53:12.434Z,24.63
2023-04-27T12:54:12.710Z,24.62